sensor_id;sensor_type;location;lat;lon;timestamp;temperature;humidity
54576;DHT22;40472;53.486;14.542;2023-07-29T00:02:22;14.30;99.90
54576;DHT22;40472;53.486;14.542;2023-07-29T00:04:47;14.30;99.90
54576;DHT22;40472;53.486;14.542;2023-07-29T00:07:13;14.20;99.90
54576;DHT22;40472;53.486;14.542;2023-07-29T00:09:39;14.20;99.90
54576;DHT22;40472;53.486;14.542;2023-07-29T00:12:05;14.20;99.90
54576;DHT22;40472;53.486;14.542;2023-07-29T00:14:30;14.30;99.90
54576;DHT22;40472;53.486;14.542;2023-07-29T00:16:56;14.40;99.90
54576;DHT22;40472;53.486;14.542;2023-07-29T00:19:21;14.30;99.90
54576;DHT22;40472;53.486;14.542;2023-07-29T00:21:49;14.30;99.90
54576;DHT22;40472;53.486;14.542;2023-07-29T00:24:14;14.40;99.90
54576;DHT22;40472;53.486;14.542;2023-07-29T00:26:40;14.40;99.90
54576;DHT22;40472;53.486;14.542;2023-07-29T00:29:05;14.40;99.90
54576;DHT22;40472;53.486;14.542;2023-07-29T00:31:31;14.30;99.90
54576;DHT22;40472;53.486;14.542;2023-07-29T00:33:57;14.40;99.90
54576;DHT22;40472;53.486;14.542;2023-07-29T00:36:23;14.30;99.90
54576;DHT22;40472;53.486;14.542;2023-07-29T00:38:49;14.20;99.90
54576;DHT22;40472;53.486;14.542;2023-07-29T00:41:15;14.20;99.90
54576;DHT22;40472;53.486;14.542;2023-07-29T00:43:41;14.10;99.90
54576;DHT22;40472;53.486;14.542;2023-07-29T00:46:07;14.10;99.90
54576;DHT22;40472;53.486;14.542;2023-07-29T00:48:34;14.20;99.90
54576;DHT22;40472;53.486;14.542;2023-07-29T00:50:59;14.30;99.90
54576;DHT22;40472;53.486;14.542;2023-07-29T00:53:25;14.20;99.90
54576;DHT22;40472;53.486;14.542;2023-07-29T00:55:50;14.10;99.90
54576;DHT22;40472;53.486;14.542;2023-07-29T00:58:16;14.00;99.90
54576;DHT22;40472;53.486;14.542;2023-07-29T01:00:42;13.90;99.90
54576;DHT22;40472;53.486;14.542;2023-07-29T01:03:08;13.90;99.90
54576;DHT22;40472;53.486;14.542;2023-07-29T01:08:37;14.00;99.90
54576;DHT22;40472;53.486;14.542;2023-07-29T01:13:58;13.90;99.90
54576;DHT22;40472;53.486;14.542;2023-07-29T01:16:39;13.90;99.90
54576;DHT22;40472;53.486;14.542;2023-07-29T01:19:11;13.90;99.90
54576;DHT22;40472;53.486;14.542;2023-07-29T01:21:40;13.90;99.90
54576;DHT22;40472;53.486;14.542;2023-07-29T01:24:06;13.90;99.90
54576;DHT22;40472;53.486;14.542;2023-07-29T01:26:32;13.90;99.90
54576;DHT22;40472;53.486;14.542;2023-07-29T01:28:57;13.90;99.90
54576;DHT22;40472;53.486;14.542;2023-07-29T01:31:33;13.90;99.90
54576;DHT22;40472;53.486;14.542;2023-07-29T01:34:06;13.90;99.90
54576;DHT22;40472;53.486;14.542;2023-07-29T01:36:37;14.00;99.90
54576;DHT22;40472;53.486;14.542;2023-07-29T01:39:06;13.90;99.90
54576;DHT22;40472;53.486;14.542;2023-07-29T01:41:33;14.00;99.90
54576;DHT22;40472;53.486;14.542;2023-07-29T01:43:59;14.00;99.90
54576;DHT22;40472;53.486;14.542;2023-07-29T01:46:25;14.20;99.90
54576;DHT22;40472;53.486;14.542;2023-07-29T01:48:51;14.20;99.90
54576;DHT22;40472;53.486;14.542;2023-07-29T01:51:16;14.20;99.90
54576;DHT22;40472;53.486;14.542;2023-07-29T01:53:42;14.20;99.90
54576;DHT22;40472;53.486;14.542;2023-07-29T01:56:08;14.10;99.90
54576;DHT22;40472;53.486;14.542;2023-07-29T01:58:33;14.00;99.90
54576;DHT22;40472;53.486;14.542;2023-07-29T02:00:59;13.90;99.90
54576;DHT22;40472;53.486;14.542;2023-07-29T02:03:24;13.80;99.90
54576;DHT22;40472;53.486;14.542;2023-07-29T02:05:50;13.70;99.90
54576;DHT22;40472;53.486;14.542;2023-07-29T02:08:16;13.70;99.90
54576;DHT22;40472;53.486;14.542;2023-07-29T02:10:41;13.60;99.90
54576;DHT22;40472;53.486;14.542;2023-07-29T02:13:10;13.60;99.90
54576;DHT22;40472;53.486;14.542;2023-07-29T02:15:36;13.60;99.90
54576;DHT22;40472;53.486;14.542;2023-07-29T02:18:01;13.60;99.90
54576;DHT22;40472;53.486;14.542;2023-07-29T02:20:28;13.60;99.90
54576;DHT22;40472;53.486;14.542;2023-07-29T02:22:54;13.60;99.90
54576;DHT22;40472;53.486;14.542;2023-07-29T02:25:20;13.70;99.90
54576;DHT22;40472;53.486;14.542;2023-07-29T02:27:45;13.60;99.90
54576;DHT22;40472;53.486;14.542;2023-07-29T02:30:11;13.60;99.90
54576;DHT22;40472;53.486;14.542;2023-07-29T02:32:37;13.70;99.90
54576;DHT22;40472;53.486;14.542;2023-07-29T02:35:03;13.80;99.90
54576;DHT22;40472;53.486;14.542;2023-07-29T02:37:30;13.90;99.90
54576;DHT22;40472;53.486;14.542;2023-07-29T02:39:55;13.80;99.90
54576;DHT22;40472;53.486;14.542;2023-07-29T02:42:21;13.80;99.90
54576;DHT22;40472;53.486;14.542;2023-07-29T02:44:47;13.70;99.90
54576;DHT22;40472;53.486;14.542;2023-07-29T02:47:12;13.70;99.90
54576;DHT22;40472;53.486;14.542;2023-07-29T02:49:38;13.80;99.90
54576;DHT22;40472;53.486;14.542;2023-07-29T02:52:04;13.80;99.90
54576;DHT22;40472;53.486;14.542;2023-07-29T02:54:30;13.70;99.90
54576;DHT22;40472;53.486;14.542;2023-07-29T02:56:55;13.70;99.90
54576;DHT22;40472;53.486;14.542;2023-07-29T02:59:21;13.80;99.90
54576;DHT22;40472;53.486;14.542;2023-07-29T03:01:47;13.80;99.90
54576;DHT22;40472;53.486;14.542;2023-07-29T03:04:12;13.90;99.90
54576;DHT22;40472;53.486;14.542;2023-07-29T03:06:40;13.90;99.90
54576;DHT22;40472;53.486;14.542;2023-07-29T03:09:06;14.00;99.90
54576;DHT22;40472;53.486;14.542;2023-07-29T03:11:32;14.10;99.90
54576;DHT22;40472;53.486;14.542;2023-07-29T03:13:57;14.10;99.90
54576;DHT22;40472;53.486;14.542;2023-07-29T03:16:23;14.10;99.90
54576;DHT22;40472;53.486;14.542;2023-07-29T03:18:49;14.20;99.90
54576;DHT22;40472;53.486;14.542;2023-07-29T03:21:15;14.20;99.90
54576;DHT22;40472;53.486;14.542;2023-07-29T03:23:41;14.20;99.90
54576;DHT22;40472;53.486;14.542;2023-07-29T03:26:06;14.20;99.90
54576;DHT22;40472;53.486;14.542;2023-07-29T03:28:37;14.30;99.90
54576;DHT22;40472;53.486;14.542;2023-07-29T03:33:40;14.30;99.90
54576;DHT22;40472;53.486;14.542;2023-07-29T03:36:06;14.40;99.90
54576;DHT22;40472;53.486;14.542;2023-07-29T03:38:31;14.60;99.90
54576;DHT22;40472;53.486;14.542;2023-07-29T03:40:58;14.70;99.90
54576;DHT22;40472;53.486;14.542;2023-07-29T03:43:24;14.80;99.90
54576;DHT22;40472;53.486;14.542;2023-07-29T03:45:49;14.90;99.90
54576;DHT22;40472;53.486;14.542;2023-07-29T03:48:15;15.00;99.90
54576;DHT22;40472;53.486;14.542;2023-07-29T03:50:40;15.10;99.90
54576;DHT22;40472;53.486;14.542;2023-07-29T03:53:06;15.10;99.90
54576;DHT22;40472;53.486;14.542;2023-07-29T03:55:32;15.10;99.90
54576;DHT22;40472;53.486;14.542;2023-07-29T03:57:59;15.10;99.90
54576;DHT22;40472;53.486;14.542;2023-07-29T04:00:25;15.10;99.90
54576;DHT22;40472;53.486;14.542;2023-07-29T04:02:51;15.10;99.90
54576;DHT22;40472;53.486;14.542;2023-07-29T04:05:16;15.30;99.90
54576;DHT22;40472;53.486;14.542;2023-07-29T04:07:42;15.50;99.90
54576;DHT22;40472;53.486;14.542;2023-07-29T04:10:08;15.60;99.90
54576;DHT22;40472;53.486;14.542;2023-07-29T04:12:34;15.80;99.90
54576;DHT22;40472;53.486;14.542;2023-07-29T04:15:00;15.90;99.90
54576;DHT22;40472;53.486;14.542;2023-07-29T04:17:25;15.90;99.90
54576;DHT22;40472;53.486;14.542;2023-07-29T04:19:51;15.90;99.90
54576;DHT22;40472;53.486;14.542;2023-07-29T04:22:16;16.00;99.90
54576;DHT22;40472;53.486;14.542;2023-07-29T04:24:42;16.10;99.90
54576;DHT22;40472;53.486;14.542;2023-07-29T04:27:08;16.20;99.90
54576;DHT22;40472;53.486;14.542;2023-07-29T04:29:34;16.20;99.90
54576;DHT22;40472;53.486;14.542;2023-07-29T04:32:01;16.20;99.90
54576;DHT22;40472;53.486;14.542;2023-07-29T04:34:27;16.20;99.90
54576;DHT22;40472;53.486;14.542;2023-07-29T04:36:53;16.20;99.90
54576;DHT22;40472;53.486;14.542;2023-07-29T04:39:18;16.20;99.90
54576;DHT22;40472;53.486;14.542;2023-07-29T04:41:44;16.30;99.90
54576;DHT22;40472;53.486;14.542;2023-07-29T04:44:09;16.40;99.90
54576;DHT22;40472;53.486;14.542;2023-07-29T04:46:36;16.50;99.90
54576;DHT22;40472;53.486;14.542;2023-07-29T04:49:02;16.60;99.90
54576;DHT22;40472;53.486;14.542;2023-07-29T04:51:28;16.60;99.90
54576;DHT22;40472;53.486;14.542;2023-07-29T04:53:53;16.70;99.90
54576;DHT22;40472;53.486;14.542;2023-07-29T04:56:19;16.70;99.90
54576;DHT22;40472;53.486;14.542;2023-07-29T04:58:45;16.70;99.90
54576;DHT22;40472;53.486;14.542;2023-07-29T05:01:11;16.70;99.90
54576;DHT22;40472;53.486;14.542;2023-07-29T05:03:36;16.80;99.90
54576;DHT22;40472;53.486;14.542;2023-07-29T05:06:03;16.80;99.90
54576;DHT22;40472;53.486;14.542;2023-07-29T05:08:29;16.80;99.90
54576;DHT22;40472;53.486;14.542;2023-07-29T05:10:54;16.70;99.90
54576;DHT22;40472;53.486;14.542;2023-07-29T05:13:21;16.80;99.90
54576;DHT22;40472;53.486;14.542;2023-07-29T05:15:48;16.80;99.90
54576;DHT22;40472;53.486;14.542;2023-07-29T05:18:14;16.90;99.90
54576;DHT22;40472;53.486;14.542;2023-07-29T05:20:40;16.90;99.90
54576;DHT22;40472;53.486;14.542;2023-07-29T05:23:05;17.00;99.90
54576;DHT22;40472;53.486;14.542;2023-07-29T05:25:31;17.10;99.90
54576;DHT22;40472;53.486;14.542;2023-07-29T05:27:57;17.10;99.90
54576;DHT22;40472;53.486;14.542;2023-07-29T05:30:22;17.20;99.90
54576;DHT22;40472;53.486;14.542;2023-07-29T05:32:48;17.30;99.90
54576;DHT22;40472;53.486;14.542;2023-07-29T05:35:14;17.30;99.90
54576;DHT22;40472;53.486;14.542;2023-07-29T05:37:40;17.40;99.90
54576;DHT22;40472;53.486;14.542;2023-07-29T05:40:06;17.60;99.90
54576;DHT22;40472;53.486;14.542;2023-07-29T05:42:33;17.60;99.90
54576;DHT22;40472;53.486;14.542;2023-07-29T05:44:59;17.60;99.90
54576;DHT22;40472;53.486;14.542;2023-07-29T05:47:24;17.60;99.90
54576;DHT22;40472;53.486;14.542;2023-07-29T05:49:50;17.70;99.90
54576;DHT22;40472;53.486;14.542;2023-07-29T05:52:16;17.60;99.90
54576;DHT22;40472;53.486;14.542;2023-07-29T05:54:41;17.70;99.90
54576;DHT22;40472;53.486;14.542;2023-07-29T05:57:09;17.60;99.90
54576;DHT22;40472;53.486;14.542;2023-07-29T05:59:35;17.60;99.90
54576;DHT22;40472;53.486;14.542;2023-07-29T06:02:01;17.50;99.90
54576;DHT22;40472;53.486;14.542;2023-07-29T06:04:26;17.50;99.90
54576;DHT22;40472;53.486;14.542;2023-07-29T06:06:52;17.30;99.90
54576;DHT22;40472;53.486;14.542;2023-07-29T06:09:18;17.20;99.90
54576;DHT22;40472;53.486;14.542;2023-07-29T06:11:43;17.10;99.90
54576;DHT22;40472;53.486;14.542;2023-07-29T06:14:09;17.30;99.90
54576;DHT22;40472;53.486;14.542;2023-07-29T06:16:35;17.30;99.90
54576;DHT22;40472;53.486;14.542;2023-07-29T06:19:00;17.40;99.90
54576;DHT22;40472;53.486;14.542;2023-07-29T06:21:26;17.50;99.90
54576;DHT22;40472;53.486;14.542;2023-07-29T06:23:52;17.60;99.90
54576;DHT22;40472;53.486;14.542;2023-07-29T06:26:18;17.70;99.90
54576;DHT22;40472;53.486;14.542;2023-07-29T06:28:44;17.70;99.90
54576;DHT22;40472;53.486;14.542;2023-07-29T06:31:09;17.90;99.90
54576;DHT22;40472;53.486;14.542;2023-07-29T06:33:35;17.90;99.90
54576;DHT22;40472;53.486;14.542;2023-07-29T06:36:00;17.80;99.90
54576;DHT22;40472;53.486;14.542;2023-07-29T06:38:26;17.70;99.90
54576;DHT22;40472;53.486;14.542;2023-07-29T06:40:52;17.70;99.90
54576;DHT22;40472;53.486;14.542;2023-07-29T06:43:18;17.70;99.90
54576;DHT22;40472;53.486;14.542;2023-07-29T06:45:43;17.60;99.90
54576;DHT22;40472;53.486;14.542;2023-07-29T06:48:09;17.60;99.90
54576;DHT22;40472;53.486;14.542;2023-07-29T06:50:34;17.60;99.90
54576;DHT22;40472;53.486;14.542;2023-07-29T06:53:00;17.70;99.90
54576;DHT22;40472;53.486;14.542;2023-07-29T06:55:26;17.90;99.90
54576;DHT22;40472;53.486;14.542;2023-07-29T06:57:51;17.90;99.90
54576;DHT22;40472;53.486;14.542;2023-07-29T07:00:17;17.90;99.90
54576;DHT22;40472;53.486;14.542;2023-07-29T07:02:43;18.00;99.90
54576;DHT22;40472;53.486;14.542;2023-07-29T07:05:09;18.30;99.90
54576;DHT22;40472;53.486;14.542;2023-07-29T07:07:34;18.40;99.90
54576;DHT22;40472;53.486;14.542;2023-07-29T07:10:00;18.70;99.90
54576;DHT22;40472;53.486;14.542;2023-07-29T07:12:26;19.00;99.90
54576;DHT22;40472;53.486;14.542;2023-07-29T07:14:51;19.10;99.90
54576;DHT22;40472;53.486;14.542;2023-07-29T07:17:17;18.80;99.90
54576;DHT22;40472;53.486;14.542;2023-07-29T07:19:43;19.00;99.90
54576;DHT22;40472;53.486;14.542;2023-07-29T07:22:12;19.20;99.90
54576;DHT22;40472;53.486;14.542;2023-07-29T07:24:42;19.20;99.90
54576;DHT22;40472;53.486;14.542;2023-07-29T07:27:08;19.10;99.90
54576;DHT22;40472;53.486;14.542;2023-07-29T07:29:37;19.30;99.90
54576;DHT22;40472;53.486;14.542;2023-07-29T07:32:06;19.40;99.90
54576;DHT22;40472;53.486;14.542;2023-07-29T07:34:32;19.60;99.90
54576;DHT22;40472;53.486;14.542;2023-07-29T07:37:06;19.70;99.90
54576;DHT22;40472;53.486;14.542;2023-07-29T07:39:32;19.90;99.90
54576;DHT22;40472;53.486;14.542;2023-07-29T07:41:58;20.00;99.90
54576;DHT22;40472;53.486;14.542;2023-07-29T07:44:23;20.10;99.90
54576;DHT22;40472;53.486;14.542;2023-07-29T07:46:52;20.10;99.90
54576;DHT22;40472;53.486;14.542;2023-07-29T07:49:21;20.10;99.90
54576;DHT22;40472;53.486;14.542;2023-07-29T07:51:47;20.10;99.90
54576;DHT22;40472;53.486;14.542;2023-07-29T07:54:12;20.10;99.90
54576;DHT22;40472;53.486;14.542;2023-07-29T07:56:38;20.20;99.90
54576;DHT22;40472;53.486;14.542;2023-07-29T07:59:04;20.10;99.90
54576;DHT22;40472;53.486;14.542;2023-07-29T08:01:35;20.30;99.90
54576;DHT22;40472;53.486;14.542;2023-07-29T08:04:01;20.50;99.90
54576;DHT22;40472;53.486;14.542;2023-07-29T08:06:27;20.70;99.90
54576;DHT22;40472;53.486;14.542;2023-07-29T08:08:52;20.80;99.90
54576;DHT22;40472;53.486;14.542;2023-07-29T08:11:18;20.90;99.90
54576;DHT22;40472;53.486;14.542;2023-07-29T08:13:44;21.10;99.90
54576;DHT22;40472;53.486;14.542;2023-07-29T08:16:09;21.20;99.90
54576;DHT22;40472;53.486;14.542;2023-07-29T08:18:35;21.20;99.90
54576;DHT22;40472;53.486;14.542;2023-07-29T08:21:01;21.40;99.90
54576;DHT22;40472;53.486;14.542;2023-07-29T08:23:31;21.40;99.90
54576;DHT22;40472;53.486;14.542;2023-07-29T08:26:03;21.50;99.90
54576;DHT22;40472;53.486;14.542;2023-07-29T08:28:37;21.40;99.90
54576;DHT22;40472;53.486;14.542;2023-07-29T08:33:52;21.30;99.90
54576;DHT22;40472;53.486;14.542;2023-07-29T08:36:25;21.70;99.90
54576;DHT22;40472;53.486;14.542;2023-07-29T08:38:53;21.80;99.90
54576;DHT22;40472;53.486;14.542;2023-07-29T08:41:26;22.00;99.90
54576;DHT22;40472;53.486;14.542;2023-07-29T08:44:12;21.90;99.90
54576;DHT22;40472;53.486;14.542;2023-07-29T08:46:42;22.00;99.90
54576;DHT22;40472;53.486;14.542;2023-07-29T08:49:12;22.30;99.90
54576;DHT22;40472;53.486;14.542;2023-07-29T08:51:44;22.70;99.90
54576;DHT22;40472;53.486;14.542;2023-07-29T08:54:10;22.90;99.90
54576;DHT22;40472;53.486;14.542;2023-07-29T08:56:37;23.10;99.90
54576;DHT22;40472;53.486;14.542;2023-07-29T08:59:03;23.10;99.90
54576;DHT22;40472;53.486;14.542;2023-07-29T09:01:30;23.30;99.90
54576;DHT22;40472;53.486;14.542;2023-07-29T09:03:56;23.20;99.90
54576;DHT22;40472;53.486;14.542;2023-07-29T09:06:23;23.00;99.90
54576;DHT22;40472;53.486;14.542;2023-07-29T09:08:51;23.00;99.90
54576;DHT22;40472;53.486;14.542;2023-07-29T09:11:19;23.10;99.90
54576;DHT22;40472;53.486;14.542;2023-07-29T09:13:46;23.40;99.90
54576;DHT22;40472;53.486;14.542;2023-07-29T09:16:13;23.50;99.90
54576;DHT22;40472;53.486;14.542;2023-07-29T09:18:39;23.70;99.90
54576;DHT22;40472;53.486;14.542;2023-07-29T09:21:05;24.00;99.90
54576;DHT22;40472;53.486;14.542;2023-07-29T09:23:42;23.90;99.90
54576;DHT22;40472;53.486;14.542;2023-07-29T09:26:08;23.90;99.90
54576;DHT22;40472;53.486;14.542;2023-07-29T09:28:35;24.10;99.90
54576;DHT22;40472;53.486;14.542;2023-07-29T09:31:02;24.20;99.90
54576;DHT22;40472;53.486;14.542;2023-07-29T09:33:28;23.90;99.90
54576;DHT22;40472;53.486;14.542;2023-07-29T09:35:54;23.90;99.90
54576;DHT22;40472;53.486;14.542;2023-07-29T09:38:29;23.90;99.90
54576;DHT22;40472;53.486;14.542;2023-07-29T09:40:56;23.80;99.90
54576;DHT22;40472;53.486;14.542;2023-07-29T09:43:29;23.70;99.90
54576;DHT22;40472;53.486;14.542;2023-07-29T09:46:03;23.90;99.90
54576;DHT22;40472;53.486;14.542;2023-07-29T09:48:33;24.30;99.90
54576;DHT22;40472;53.486;14.542;2023-07-29T09:51:09;24.30;99.90
54576;DHT22;40472;53.486;14.542;2023-07-29T09:53:42;24.30;99.90
54576;DHT22;40472;53.486;14.542;2023-07-29T09:56:08;24.20;99.90
54576;DHT22;40472;53.486;14.542;2023-07-29T09:58:33;24.00;99.90
54576;DHT22;40472;53.486;14.542;2023-07-29T10:03:38;24.10;99.90
54576;DHT22;40472;53.486;14.542;2023-07-29T10:06:05;24.20;99.90
54576;DHT22;40472;53.486;14.542;2023-07-29T10:08:31;24.30;99.90
54576;DHT22;40472;53.486;14.542;2023-07-29T10:11:01;24.10;99.90
54576;DHT22;40472;53.486;14.542;2023-07-29T10:13:27;24.20;99.90
54576;DHT22;40472;53.486;14.542;2023-07-29T10:15:54;24.40;99.90
54576;DHT22;40472;53.486;14.542;2023-07-29T10:18:22;24.60;99.90
54576;DHT22;40472;53.486;14.542;2023-07-29T10:20:51;24.50;99.90
54576;DHT22;40472;53.486;14.542;2023-07-29T10:23:18;24.60;99.90
54576;DHT22;40472;53.486;14.542;2023-07-29T10:25:57;24.80;99.90
54576;DHT22;40472;53.486;14.542;2023-07-29T10:28:25;25.00;99.90
54576;DHT22;40472;53.486;14.542;2023-07-29T10:30:52;25.10;99.90
54576;DHT22;40472;53.486;14.542;2023-07-29T10:33:19;25.20;99.90
54576;DHT22;40472;53.486;14.542;2023-07-29T10:35:44;25.20;99.90
54576;DHT22;40472;53.486;14.542;2023-07-29T10:38:11;25.30;99.90
54576;DHT22;40472;53.486;14.542;2023-07-29T10:41:02;25.00;99.90
54576;DHT22;40472;53.486;14.542;2023-07-29T10:43:35;25.00;99.90
54576;DHT22;40472;53.486;14.542;2023-07-29T10:46:20;24.70;99.90
54576;DHT22;40472;53.486;14.542;2023-07-29T10:48:56;25.10;99.90
54576;DHT22;40472;53.486;14.542;2023-07-29T10:53:48;24.80;99.90
54576;DHT22;40472;53.486;14.542;2023-07-29T10:56:26;25.10;99.90
54576;DHT22;40472;53.486;14.542;2023-07-29T10:58:51;25.10;99.90
54576;DHT22;40472;53.486;14.542;2023-07-29T11:01:29;24.80;99.90
54576;DHT22;40472;53.486;14.542;2023-07-29T11:04:28;24.40;99.90
54576;DHT22;40472;53.486;14.542;2023-07-29T11:09:53;24.30;99.90
54576;DHT22;40472;53.486;14.542;2023-07-29T11:17:32;24.00;99.90
54576;DHT22;40472;53.486;14.542;2023-07-29T11:20:00;24.10;99.90
54576;DHT22;40472;53.486;14.542;2023-07-29T11:22:26;23.90;99.90
54576;DHT22;40472;53.486;14.542;2023-07-29T11:24:52;23.70;99.90
54576;DHT22;40472;53.486;14.542;2023-07-29T11:27:17;23.40;99.90
54576;DHT22;40472;53.486;14.542;2023-07-29T11:29:43;23.20;99.90
54576;DHT22;40472;53.486;14.542;2023-07-29T11:32:09;23.00;99.90
54576;DHT22;40472;53.486;14.542;2023-07-29T11:34:35;22.70;99.90
54576;DHT22;40472;53.486;14.542;2023-07-29T11:37:01;22.80;99.90
54576;DHT22;40472;53.486;14.542;2023-07-29T11:39:26;23.00;99.90
54576;DHT22;40472;53.486;14.542;2023-07-29T11:41:52;23.20;99.90
54576;DHT22;40472;53.486;14.542;2023-07-29T11:44:18;23.30;99.90
54576;DHT22;40472;53.486;14.542;2023-07-29T11:46:43;23.20;99.90
54576;DHT22;40472;53.486;14.542;2023-07-29T11:49:09;23.40;99.90
54576;DHT22;40472;53.486;14.542;2023-07-29T11:51:36;23.30;99.90
54576;DHT22;40472;53.486;14.542;2023-07-29T11:54:02;23.30;99.90
54576;DHT22;40472;53.486;14.542;2023-07-29T11:56:29;23.20;99.90
54576;DHT22;40472;53.486;14.542;2023-07-29T11:58:55;23.10;99.90
54576;DHT22;40472;53.486;14.542;2023-07-29T12:03:57;23.20;99.90
54576;DHT22;40472;53.486;14.542;2023-07-29T12:06:24;21.90;99.90
54576;DHT22;40472;53.486;14.542;2023-07-29T12:08:50;21.60;99.90
54576;DHT22;40472;53.486;14.542;2023-07-29T12:11:16;21.10;99.90
54576;DHT22;40472;53.486;14.542;2023-07-29T12:13:43;20.70;99.90
54576;DHT22;40472;53.486;14.542;2023-07-29T12:16:08;20.40;99.90
54576;DHT22;40472;53.486;14.542;2023-07-29T12:18:36;19.70;99.90
54576;DHT22;40472;53.486;14.542;2023-07-29T12:21:02;19.30;99.90
54576;DHT22;40472;53.486;14.542;2023-07-29T12:23:29;19.10;99.90
54576;DHT22;40472;53.486;14.542;2023-07-29T12:25:59;18.80;99.90
54576;DHT22;40472;53.486;14.542;2023-07-29T12:28:25;18.40;99.90
54576;DHT22;40472;53.486;14.542;2023-07-29T12:30:57;18.10;99.90
